Time;durP1;ratioP1;P1;durP2;ratioP2;P2;SDS_P1;SDS_P2;PMS_P1;PMS_P2;Temp;Humidity;BMP_temperature;BMP_pressure;BME280_temperature;BME280_humidity;BME280_pressure;Samples;Min_cycle;Max_cycle;Signal;HPM_P1;HPM_P2
2022/08/08 00:00:59;;;;;;;0.70;0.10;;;20.90;99.90;;;;;;5011538;28;20437;-76
2022/08/08 00:03:46;;;;;;;0.80;0.40;;;20.80;99.90;;;;;;5011428;28;20473;-76
2022/08/08 00:06:26;;;;;;;0.70;0.10;;;20.80;99.90;;;;;;5011546;28;20448;-76
2022/08/08 00:09:07;;;;;;;0.70;0.20;;;20.80;99.90;;;;;;5026343;28;20436;-76
2022/08/08 00:11:42;;;;;;;0.70;0.10;;;20.80;99.90;;;;;;5034963;28;20458;-76
2022/08/08 00:14:45;;;;;;;0.70;0.20;;;20.70;99.90;;;;;;5034763;28;20450;-76
2022/08/08 00:17:35;;;;;;;0.70;0.20;;;20.70;99.90;;;;;;5034555;28;20442;-76
2022/08/08 00:20:31;;;;;;;0.70;0.30;;;20.60;99.90;;;;;;5034810;28;20493;-76
2022/08/08 00:23:03;;;;;;;0.70;0.20;;;20.60;99.90;;;;;;5034740;28;20549;-77
2022/08/08 00:25:39;;;;;;;0.70;0.10;;;20.60;99.90;;;;;;5034532;28;20820;-77
2022/08/08 00:28:21;;;;;;;0.70;0.20;;;20.60;99.90;;;;;;5030875;28;20784;-75
2022/08/08 00:31:09;;;;;;;0.70;0.20;;;20.60;99.90;;;;;;5015660;28;20463;-75
2022/08/08 00:37:00;;;;;;;0.70;0.20;;;20.50;99.90;;;;;;5015162;28;20468;-76
2022/08/08 00:39:44;;;;;;;0.70;0.10;;;20.50;99.90;;;;;;5013907;28;20478;-76
2022/08/08 00:42:59;;;;;;;0.70;0.20;;;20.50;99.90;;;;;;5015025;28;21058;-75
2022/08/08 00:46:17;;;;;;;0.70;0.20;;;20.50;99.90;;;;;;5014629;28;20784;-76
2022/08/08 00:49:28;;;;;;;0.70;0.20;;;20.50;99.90;;;;;;4999084;28;20450;-76
2022/08/08 00:52:12;;;;;;;0.70;0.10;;;22.70;99.90;;;;;;5022077;28;20452;-75
2022/08/08 00:55:10;;;;;;;0.70;0.20;;;20.40;99.90;;;;;;5026764;28;20436;-75
2022/08/08 00:58:19;;;;;;;0.70;0.10;;;20.50;99.90;;;;;;5034593;28;20540;-75
2022/08/08 01:00:57;;;;;;;0.80;0.50;;;20.40;99.90;;;;;;5034111;28;20442;-75
2022/08/08 01:03:53;;;;;;;0.70;0.10;;;20.40;99.90;;;;;;5032222;28;20507;-76
2022/08/08 01:07:06;;;;;;;0.70;0.10;;;20.30;99.90;;;;;;5003331;28;20443;-76
2022/08/08 01:10:10;;;;;;;0.70;0.10;;;20.30;99.90;;;;;;5032419;28;20446;-76
2022/08/08 01:13:00;;;;;;;0.80;0.47;;;20.20;99.90;;;;;;5032156;28;20463;-75
2022/08/08 01:16:01;;;;;;;0.70;0.20;;;20.20;99.90;;;;;;5032297;28;20475;-75
2022/08/08 01:19:06;;;;;;;0.70;0.20;;;20.20;99.90;;;;;;5033435;28;20443;-76
2022/08/08 01:22:19;;;;;;;0.70;0.10;;;20.10;99.90;;;;;;5013046;28;20535;-76
2022/08/08 01:25:32;;;;;;;0.70;0.10;;;20.10;99.90;;;;;;5014117;28;20463;-75
2022/08/08 01:28:27;;;;;;;0.70;0.20;;;20.10;99.90;;;;;;5016277;28;20448;-77
2022/08/08 01:31:34;;;;;;;0.70;0.20;;;20.10;99.90;;;;;;5031326;28;20480;-76
2022/08/08 01:35:07;;;;;;;0.70;0.10;;;20.10;99.90;;;;;;5033509;28;20459;-76
2022/08/08 01:38:15;;;;;;;0.60;0.20;;;20.00;99.90;;;;;;5015352;28;20556;-76
2022/08/08 01:40:53;;;;;;;0.70;0.10;;;20.00;99.90;;;;;;5033395;28;20525;-76
2022/08/08 01:43:36;;;;;;;0.90;0.63;;;21.30;99.90;;;;;;5033153;28;20463;-76
2022/08/08 01:46:24;;;;;;;0.70;0.20;;;20.00;99.90;;;;;;5033151;28;20471;-76
2022/08/08 01:49:07;;;;;;;0.70;0.20;;;19.90;99.90;;;;;;5032847;28;20455;-76
2022/08/08 01:51:59;;;;;;;0.70;0.10;;;19.90;99.90;;;;;;5033069;28;20451;-76
2022/08/08 01:54:56;;;;;;;0.70;0.10;;;19.80;99.90;;;;;;5034164;28;20546;-76
2022/08/08 01:58:06;;;;;;;0.70;0.20;;;19.80;99.90;;;;;;5033345;28;21010;-76
2022/08/08 02:00:49;;;;;;;0.70;0.30;;;19.70;99.90;;;;;;5034172;28;20531;-75
2022/08/08 02:03:38;;;;;;;0.70;0.10;;;19.70;99.90;;;;;;5033886;28;20463;-76
2022/08/08 02:06:39;;;;;;;0.60;0.10;;;19.70;99.90;;;;;;5033699;28;20961;-76
2022/08/08 02:09:27;;;;;;;0.70;0.30;;;19.70;99.90;;;;;;5029621;28;20467;-75
2022/08/08 02:12:23;;;;;;;0.70;0.20;;;19.50;99.90;;;;;;5014961;28;20460;-76
2022/08/08 02:14:58;;;;;;;0.70;0.20;;;19.50;99.90;;;;;;5017802;28;20439;-76
2022/08/08 02:17:32;;;;;;;0.70;0.20;;;19.50;99.90;;;;;;5019258;28;21014;-76
2022/08/08 02:20:18;;;;;;;0.70;0.10;;;19.40;99.90;;;;;;5028148;28;20451;-76
2022/08/08 02:23:14;;;;;;;0.60;0.10;;;19.40;99.90;;;;;;5033737;28;20521;-76
2022/08/08 02:25:56;;;;;;;0.70;0.30;;;19.40;99.90;;;;;;5032883;28;20787;-76
2022/08/08 02:28:44;;;;;;;0.70;0.20;;;19.30;99.90;;;;;;5032790;28;20550;-76
2022/08/08 02:31:31;;;;;;;0.63;0.20;;;19.30;99.90;;;;;;5032770;28;20455;-76
2022/08/08 02:34:33;;;;;;;0.60;0.10;;;19.20;99.90;;;;;;5032502;28;20443;-75
2022/08/08 02:37:12;;;;;;;0.60;0.10;;;19.20;99.90;;;;;;5017677;28;20569;-75
2022/08/08 02:40:09;;;;;;;0.70;0.20;;;19.20;99.90;;;;;;5032597;28;20452;-76
2022/08/08 02:43:05;;;;;;;0.70;0.17;;;19.20;99.90;;;;;;5032827;28;20569;-75
2022/08/08 02:46:29;;;;;;;0.60;0.10;;;19.10;99.90;;;;;;5032622;28;20444;-75
2022/08/08 02:49:33;;;;;;;0.60;0.13;;;19.00;99.90;;;;;;5007350;28;20452;-76
2022/08/08 02:52:50;;;;;;;0.60;0.10;;;19.00;99.90;;;;;;5012228;28;20464;-75
2022/08/08 02:55:55;;;;;;;0.60;0.10;;;18.90;99.90;;;;;;5012336;28;20448;-76
2022/08/08 02:59:14;;;;;;;2.93;0.63;;;18.90;99.90;;;;;;5011796;28;20456;-75
2022/08/08 03:02:43;;;;;;;0.60;0.20;;;18.90;99.90;;;;;;4999108;28;20444;-75
2022/08/08 03:05:40;;;;;;;0.60;0.10;;;18.90;99.90;;;;;;5012681;28;20460;-75
2022/08/08 03:08:43;;;;;;;0.60;0.20;;;18.90;99.90;;;;;;5012652;28;20448;-74
2022/08/08 03:11:52;;;;;;;0.60;0.10;;;18.80;99.90;;;;;;5031333;28;20452;-75
2022/08/08 03:14:50;;;;;;;0.60;0.10;;;18.80;99.90;;;;;;5031912;28;20447;-76
2022/08/08 03:17:45;;;;;;;0.60;0.20;;;18.80;99.90;;;;;;5031640;28;21005;-75
2022/08/08 03:20:44;;;;;;;0.70;0.30;;;18.70;99.90;;;;;;5032762;28;20934;-78
2022/08/08 03:23:19;;;;;;;0.60;0.10;;;18.70;99.90;;;;;;5032080;28;20503;-77
2022/08/08 03:25:50;;;;;;;0.60;0.10;;;18.70;99.90;;;;;;5031571;28;20494;-77
2022/08/08 03:28:26;;;;;;;0.60;0.10;;;18.70;99.90;;;;;;5031612;28;20463;-78
2022/08/08 03:30:56;;;;;;;0.60;0.10;;;18.70;99.90;;;;;;5031867;28;20447;-78
2022/08/08 03:33:43;;;;;;;0.60;0.30;;;18.70;99.90;;;;;;5031265;28;20464;-77
2022/08/08 03:36:28;;;;;;;0.60;0.20;;;18.70;99.90;;;;;;5032436;28;20462;-78
2022/08/08 03:38:59;;;;;;;0.60;0.20;;;18.60;99.90;;;;;;5032681;28;20816;-78
2022/08/08 03:41:42;;;;;;;0.60;0.10;;;18.60;99.90;;;;;;5013267;28;20549;-78
2022/08/08 03:44:32;;;;;;;0.60;0.20;;;18.60;99.90;;;;;;5011679;28;20951;-78
2022/08/08 03:47:01;;;;;;;0.60;0.20;;;18.60;99.90;;;;;;5012377;28;20441;-79
2022/08/08 03:49:47;;;;;;;0.60;0.20;;;18.50;99.90;;;;;;5017561;28;20905;-78
2022/08/08 03:52:30;;;;;;;0.60;0.10;;;18.50;99.90;;;;;;5032051;28;20475;-78
2022/08/08 03:55:02;;;;;;;0.60;0.10;;;18.50;99.90;;;;;;5031935;28;20451;-78
2022/08/08 03:57:38;;;;;;;0.60;0.13;;;18.50;99.90;;;;;;5031727;28;20471;-78
2022/08/08 04:00:28;;;;;;;0.80;0.30;;;18.50;99.90;;;;;;5031417;28;20443;-77
2022/08/08 04:03:00;;;;;;;0.60;0.10;;;18.50;99.90;;;;;;5031471;28;20467;-77
2022/08/08 04:05:31;;;;;;;0.60;0.10;;;18.40;99.90;;;;;;5031126;28;20968;-78
2022/08/08 04:08:04;;;;;;;0.60;0.20;;;18.40;99.90;;;;;;5021514;28;21009;-77
2022/08/08 04:10:35;;;;;;;0.60;0.20;;;18.40;99.90;;;;;;5011710;28;20417;-77
2022/08/08 04:13:04;;;;;;;0.60;0.10;;;18.30;99.90;;;;;;5011592;28;20479;-77
2022/08/08 04:15:45;;;;;;;0.60;0.20;;;18.30;99.90;;;;;;5011817;28;20892;-76
2022/08/08 04:18:31;;;;;;;0.60;0.10;;;18.40;99.90;;;;;;5011485;28;21013;-77
2022/08/08 04:20:59;;;;;;;0.60;0.20;;;18.40;99.90;;;;;;5011884;28;20455;-76
2022/08/08 04:23:27;;;;;;;0.60;0.20;;;18.40;99.90;;;;;;5011359;28;20798;-77
2022/08/08 04:26:17;;;;;;;0.60;0.20;;;18.40;99.90;;;;;;5011955;28;20463;-77
2022/08/08 04:28:46;;;;;;;0.60;0.10;;;18.40;99.90;;;;;;5019027;28;20532;-78
2022/08/08 04:31:21;;;;;;;0.60;0.20;;;18.40;99.90;;;;;;5016067;28;20464;-78
2022/08/08 04:34:09;;;;;;;0.60;0.10;;;18.40;99.90;;;;;;5020835;28;20479;-79
2022/08/08 04:36:37;;;;;;;0.60;0.10;;;18.40;99.90;;;;;;5030370;28;20478;-78
2022/08/08 04:39:04;;;;;;;0.60;0.20;;;18.30;99.90;;;;;;5032792;28;20570;-77
2022/08/08 04:41:54;;;;;;;0.60;0.10;;;18.30;99.90;;;;;;5033126;28;20423;-76
2022/08/08 04:44:22;;;;;;;0.60;0.20;;;18.30;99.90;;;;;;5027777;28;20449;-77
2022/08/08 04:46:53;;;;;;;0.60;0.20;;;18.30;99.90;;;;;;5027896;28;20435;-77
2022/08/08 04:49:24;;;;;;;1.13;0.80;;;18.30;99.90;;;;;;5028270;28;20822;-77
2022/08/08 04:52:12;;;;;;;0.60;0.20;;;18.30;99.90;;;;;;5031138;28;20466;-77
2022/08/08 04:54:41;;;;;;;0.60;0.10;;;18.40;99.90;;;;;;5031323;28;20451;-77
2022/08/08 04:57:11;;;;;;;0.60;0.20;;;18.40;99.90;;;;;;5031097;28;20454;-76
2022/08/08 04:59:39;;;;;;;0.60;0.20;;;18.40;99.90;;;;;;5036972;28;20440;-79
2022/08/08 05:02:09;;;;;;;0.60;0.10;;;18.40;99.90;;;;;;5035466;28;21433;-79
2022/08/08 05:04:41;;;;;;;0.60;0.10;;;18.40;99.90;;;;;;5038706;28;20455;-76
2022/08/08 05:07:11;;;;;;;0.60;0.10;;;18.40;99.90;;;;;;5039517;28;20450;-76
2022/08/08 05:09:42;;;;;;;0.60;0.10;;;18.50;99.90;;;;;;5036831;28;20516;-78
2022/08/08 05:12:11;;;;;;;0.60;0.10;;;18.50;99.90;;;;;;5034531;28;20459;-78
2022/08/08 05:14:59;;;;;;;0.60;0.10;;;18.50;99.90;;;;;;5033570;28;20451;-77
2022/08/08 05:17:31;;;;;;;0.60;0.10;;;18.50;99.90;;;;;;5034181;28;20482;-77
2022/08/08 05:20:20;;;;;;;0.60;0.10;;;18.50;99.90;;;;;;5044958;28;20447;-77
2022/08/08 05:22:51;;;;;;;0.60;0.10;;;18.60;99.90;;;;;;5046803;28;20466;-79
2022/08/08 05:25:20;;;;;;;0.60;0.10;;;18.60;99.90;;;;;;5041815;28;20525;-78
2022/08/08 05:27:50;;;;;;;0.60;0.20;;;18.60;99.90;;;;;;5040875;28;20470;-78
2022/08/08 05:30:21;;;;;;;0.80;0.20;;;18.60;99.90;;;;;;5040591;28;20982;-78
2022/08/08 05:32:55;;;;;;;0.60;0.20;;;18.60;99.90;;;;;;5041940;28;20489;-77
2022/08/08 05:35:25;;;;;;;0.60;0.10;;;18.60;99.90;;;;;;5039150;28;20475;-76
2022/08/08 05:37:59;;;;;;;0.60;0.10;;;18.60;99.90;;;;;;5039476;28;20598;-77
2022/08/08 05:40:31;;;;;;;0.60;0.17;;;18.60;99.90;;;;;;5038860;28;20494;-78
2022/08/08 05:43:03;;;;;;;0.60;0.20;;;18.60;99.90;;;;;;5040155;28;20472;-78
2022/08/08 05:45:56;;;;;;;0.60;0.10;;;18.60;99.90;;;;;;5033817;28;20447;-75
2022/08/08 05:48:32;;;;;;;0.60;0.20;;;18.70;99.90;;;;;;5033024;28;20958;-74
2022/08/08 05:51:03;;;;;;;0.60;0.10;;;18.80;99.90;;;;;;5025851;28;20632;-75
2022/08/08 05:53:44;;;;;;;0.60;0.20;;;18.80;99.90;;;;;;5033749;28;20958;-75
2022/08/08 05:56:36;;;;;;;0.60;0.10;;;18.90;99.90;;;;;;5034123;28;20444;-76
2022/08/08 05:59:16;;;;;;;0.60;0.20;;;18.90;99.90;;;;;;5032269;28;20517;-75
2022/08/08 06:03:08;;;;;;;0.97;0.30;;;18.90;99.90;;;;;;5034152;28;20448;-74
2022/08/08 06:04:59;;;;;;;0.60;0.10;;;19.00;99.90;;;;;;5033171;28;21097;-75
2022/08/08 06:07:27;;;;;;;0.60;0.10;;;19.00;99.90;;;;;;5027829;28;20933;-75
2022/08/08 06:09:58;;;;;;;0.70;0.30;;;19.10;99.90;;;;;;5033915;28;20447;-75
2022/08/08 06:12:32;;;;;;;0.60;0.10;;;19.20;99.90;;;;;;5033695;28;20455;-74
2022/08/08 06:15:04;;;;;;;0.60;0.10;;;19.50;99.90;;;;;;5033145;28;20444;-76
2022/08/08 06:17:35;;;;;;;0.60;0.20;;;19.30;99.90;;;;;;5028575;28;20464;-73
2022/08/08 06:20:24;;;;;;;0.77;0.30;;;19.30;99.90;;;;;;5033317;28;20992;-77
2022/08/08 06:22:53;;;;;;;0.70;0.20;;;19.30;99.90;;;;;;5033647;28;20466;-79
2022/08/08 06:25:25;;;;;;;0.60;0.20;;;19.30;99.90;;;;;;5034237;28;20447;-75
2022/08/08 06:28:17;;;;;;;0.60;0.10;;;19.40;99.90;;;;;;5030422;28;20799;-75
2022/08/08 06:30:56;;;;;;;0.60;0.10;;;19.40;99.90;;;;;;5027438;28;20455;-75
2022/08/08 06:33:32;;;;;;;0.93;0.60;;;19.50;99.90;;;;;;5035403;28;20471;-77
2022/08/08 06:36:28;;;;;;;0.60;0.10;;;19.50;99.90;;;;;;5032988;28;20450;-77
2022/08/08 06:38:59;;;;;;;0.73;0.20;;;19.60;99.90;;;;;;5019159;28;20566;-76
2022/08/08 06:41:35;;;;;;;0.63;0.10;;;19.70;99.90;;;;;;5018610;28;20475;-76
2022/08/08 06:44:10;;;;;;;0.70;0.10;;;19.70;99.90;;;;;;5032005;28;20458;-76
2022/08/08 06:46:52;;;;;;;0.60;0.20;;;19.80;99.90;;;;;;5031949;28;20558;-77
2022/08/08 06:49:20;;;;;;;0.70;0.20;;;19.90;99.90;;;;;;5027894;28;20511;-76
2022/08/08 06:52:08;;;;;;;0.60;0.10;;;20.00;99.90;;;;;;5031483;28;20880;-76
2022/08/08 06:54:37;;;;;;;0.70;0.20;;;20.10;99.90;;;;;;5026817;28;20509;-77
2022/08/08 06:57:09;;;;;;;0.70;0.20;;;20.20;99.90;;;;;;5031918;28;20546;-77
2022/08/08 06:59:37;;;;;;;0.70;0.20;;;20.20;99.90;;;;;;5031923;28;20487;-76
2022/08/08 07:02:30;;;;;;;0.70;0.10;;;20.40;99.90;;;;;;5032235;28;20463;-76
2022/08/08 07:05:04;;;;;;;0.70;0.10;;;20.40;99.90;;;;;;5030781;28;20509;-78
2022/08/08 07:07:43;;;;;;;0.70;0.20;;;20.50;99.90;;;;;;5013717;28;20440;-76
2022/08/08 07:10:12;;;;;;;0.70;0.20;;;20.50;99.90;;;;;;5025738;28;20505;-77
2022/08/08 07:12:42;;;;;;;0.70;0.10;;;20.70;99.90;;;;;;5033250;28;20459;-74
2022/08/08 07:15:17;;;;;;;0.70;0.30;;;20.70;99.90;;;;;;5032691;28;20501;-76
2022/08/08 07:18:07;;;;;;;0.70;0.10;;;20.80;99.90;;;;;;5032899;28;20440;-75
2022/08/08 07:21:03;;;;;;;0.70;0.20;;;20.80;99.90;;;;;;5032938;28;20430;-76
2022/08/08 07:23:41;;;;;;;0.70;0.10;;;20.90;99.90;;;;;;5033365;28;20542;-77
2022/08/08 07:26:32;;;;;;;0.70;0.20;;;20.90;99.90;;;;;;5034233;28;20447;-76
2022/08/08 07:29:04;;;;;;;0.70;0.20;;;21.00;99.90;;;;;;5035302;28;20802;-79
2022/08/08 07:31:47;;;;;;;0.70;0.10;;;21.00;99.90;;;;;;5033750;28;20797;-78
2022/08/08 07:34:17;;;;;;;0.70;0.20;;;21.10;99.90;;;;;;5035085;28;20806;-78
2022/08/08 07:36:55;;;;;;;0.70;0.10;;;21.20;99.90;;;;;;5033188;28;20506;-78
2022/08/08 07:39:24;;;;;;;0.70;0.20;;;21.20;99.90;;;;;;5031911;28;20534;-78
2022/08/08 07:42:13;;;;;;;0.70;0.20;;;21.40;99.90;;;;;;5033869;28;20506;-77
2022/08/08 07:44:47;;;;;;;0.70;0.10;;;21.40;99.90;;;;;;5032395;28;20510;-79
2022/08/08 07:47:22;;;;;;;0.70;0.20;;;21.40;99.90;;;;;;5015950;28;20482;-79
2022/08/08 07:50:08;;;;;;;0.70;0.17;;;21.50;99.90;;;;;;5035273;28;20538;-79
2022/08/08 07:52:37;;;;;;;0.70;0.10;;;21.60;99.90;;;;;;5031562;28;20478;-79
2022/08/08 07:55:17;;;;;;;0.70;0.10;;;21.60;99.90;;;;;;5034575;28;20514;-79
2022/08/08 07:57:52;;;;;;;0.70;0.10;;;21.70;99.90;;;;;;5016019;28;20450;-79
2022/08/08 08:00:23;;;;;;;0.70;0.20;;;21.70;99.90;;;;;;5026950;28;20468;-79
2022/08/08 08:03:04;;;;;;;0.70;0.13;;;21.90;99.90;;;;;;5039526;28;20494;-79
2022/08/08 08:05:38;;;;;;;0.70;0.10;;;21.90;99.90;;;;;;5040989;28;20431;-79
2022/08/08 08:08:14;;;;;;;0.70;0.17;;;22.00;99.90;;;;;;5037963;28;20435;-79
2022/08/08 08:10:49;;;;;;;0.70;0.13;;;22.00;99.90;;;;;;5039031;28;20887;-79
2022/08/08 08:13:25;;;;;;;0.70;0.10;;;22.20;99.90;;;;;;5039309;28;20823;-79
2022/08/08 08:16:18;;;;;;;0.70;0.17;;;22.20;99.90;;;;;;5043407;28;20432;-79
2022/08/08 08:18:54;;;;;;;1.00;0.60;;;22.20;99.90;;;;;;5030349;28;20510;-78
2022/08/08 08:21:27;;;;;;;0.70;0.20;;;22.30;99.90;;;;;;5045204;28;20443;-78
2022/08/08 08:24:16;;;;;;;0.70;0.10;;;22.30;99.90;;;;;;5040502;28;20527;-76
2022/08/08 08:26:47;;;;;;;0.70;0.20;;;;;;;;;;5037729;28;20436;-79
2022/08/08 08:29:22;;;;;;;0.70;0.20;;;22.40;99.90;;;;;;5034932;28;20493;-75
2022/08/08 08:31:55;;;;;;;0.70;0.10;;;22.50;99.90;;;;;;5039749;28;20459;-76
2022/08/08 08:34:26;;;;;;;0.70;0.10;;;22.60;99.90;;;;;;5043608;28;20458;-79
2022/08/08 08:37:02;;;;;;;0.70;0.10;;;22.70;99.90;;;;;;5043772;28;20434;-79
2022/08/08 08:39:36;;;;;;;0.70;0.10;;;22.70;99.90;;;;;;5042482;28;20506;-81
2022/08/08 08:42:25;;;;;;;0.70;0.20;;;22.90;99.90;;;;;;5018662;28;20456;-78
2022/08/08 08:45:03;;;;;;;0.70;0.20;;;22.90;99.90;;;;;;5034052;28;20561;-80
2022/08/08 08:47:51;;;;;;;0.70;0.10;;;22.90;99.90;;;;;;5040011;28;20458;-78
2022/08/08 08:50:22;;;;;;;0.70;0.10;;;22.90;99.90;;;;;;5038945;28;20809;-79
2022/08/08 08:53:04;;;;;;;0.70;0.10;;;23.00;99.90;;;;;;5042219;28;20487;-78
2022/08/08 08:55:54;;;;;;;0.70;0.10;;;23.10;99.90;;;;;;5024222;28;20436;-80
2022/08/08 08:58:31;;;;;;;0.70;0.10;;;23.10;99.90;;;;;;5028904;28;20447;-78
2022/08/08 09:01:01;;;;;;;0.70;0.10;;;23.10;99.90;;;;;;5045563;28;20467;-77
2022/08/08 09:03:39;;;;;;;0.70;0.10;;;23.20;99.90;;;;;;5041364;28;21021;-78
2022/08/08 09:06:20;;;;;;;0.70;0.20;;;23.30;99.90;;;;;;5034027;28;21050;-81
2022/08/08 09:09:05;;;;;;;0.70;0.20;;;23.30;99.90;;;;;;5032345;28;20448;-78
2022/08/08 09:11:35;;;;;;;0.70;0.20;;;23.40;99.90;;;;;;5036025;28;20447;-76
2022/08/08 09:14:26;;;;;;;0.70;0.10;;;23.40;99.90;;;;;;5030190;28;20448;-76
2022/08/08 09:16:54;;;;;;;0.70;0.20;;;23.60;99.90;;;;;;5016144;28;20448;-74
2022/08/08 09:19:22;;;;;;;0.70;0.20;;;23.60;99.90;;;;;;5014628;28;20456;-77
2022/08/08 09:22:13;;;;;;;0.70;0.10;;;23.70;99.90;;;;;;5015167;28;20465;-79
2022/08/08 09:24:55;;;;;;;0.70;0.10;;;23.70;99.90;;;;;;5015268;28;20440;-76
2022/08/08 09:27:26;;;;;;;0.70;0.20;;;23.80;99.90;;;;;;5018262;28;20558;-76
2022/08/08 09:30:15;;;;;;;0.70;0.20;;;23.90;99.90;;;;;;5035901;28;20775;-80
2022/08/08 09:32:51;;;;;;;0.70;0.10;;;24.00;99.90;;;;;;5037426;28;20525;-79
2022/08/08 09:35:43;;;;;;;0.70;0.10;;;24.90;99.90;;;;;;5031095;28;20459;-76
2022/08/08 09:38:30;;;;;;;0.70;0.10;;;24.10;99.90;;;;;;5035350;28;20440;-78
2022/08/08 09:41:05;;;;;;;0.70;0.20;;;26.30;99.90;;;;;;5035206;28;20791;-78
2022/08/08 09:43:48;;;;;;;0.70;0.10;;;24.30;99.90;;;;;;5036163;28;20833;-77
2022/08/08 09:46:42;;;;;;;1.83;1.10;;;24.40;99.90;;;;;;5031088;28;20439;-76
2022/08/08 09:49:24;;;;;;;0.70;0.10;;;24.40;99.90;;;;;;5032788;28;20460;-77
2022/08/08 09:52:19;;;;;;;0.70;0.17;;;24.50;99.90;;;;;;5037758;28;20447;-79
2022/08/08 09:55:08;;;;;;;0.70;0.20;;;24.70;99.90;;;;;;5044537;28;20448;-78
2022/08/08 09:57:49;;;;;;;0.70;0.20;;;24.80;99.90;;;;;;5015581;28;20499;-80
2022/08/08 10:00:25;;;;;;;0.70;0.10;;;24.90;99.90;;;;;;5038002;28;20485;-75
2022/08/08 10:03:15;;;;;;;0.80;0.20;;;24.90;99.90;;;;;;5034261;28;20452;-75
2022/08/08 10:05:47;;;;;;;0.70;0.10;;;24.90;99.90;;;;;;5032111;28;20467;-76
2022/08/08 10:08:16;;;;;;;0.70;0.20;;;25.00;99.90;;;;;;5033475;28;20511;-76
2022/08/08 10:10:45;;;;;;;0.70;0.20;;;25.20;99.90;;;;;;5034142;28;20446;-76
2022/08/08 10:13:21;;;;;;;0.70;0.10;;;25.20;99.90;;;;;;5034701;28;20459;-75
2022/08/08 10:16:02;;;;;;;0.70;0.20;;;25.20;99.90;;;;;;5033908;28;20432;-75
2022/08/08 10:18:33;;;;;;;0.70;0.30;;;25.30;99.90;;;;;;5033571;28;20555;-75
2022/08/08 10:21:03;;;;;;;0.70;0.10;;;25.40;99.90;;;;;;5031216;28;20490;-75
2022/08/08 10:23:52;;;;;;;0.70;0.20;;;25.50;99.90;;;;;;5013171;28;20453;-75
2022/08/08 10:26:28;;;;;;;0.70;0.20;;;25.50;99.90;;;;;;5015671;28;20463;-75
2022/08/08 10:29:23;;;;;;;0.70;0.20;;;25.50;99.90;;;;;;5026677;28;20467;-75
2022/08/08 10:34:51;;;;;;;0.80;0.47;;;25.70;99.90;;;;;;5033195;28;20463;-74
2022/08/08 10:37:28;;;;;;;0.70;0.10;;;25.80;99.90;;;;;;5020410;28;20450;-75
2022/08/08 10:39:58;;;;;;;0.70;0.20;;;;;;;;;;5024984;28;20451;-78
2022/08/08 10:42:33;;;;;;;0.70;0.20;;;25.90;99.90;;;;;;5037414;28;20497;-76
2022/08/08 10:45:07;;;;;;;0.70;0.10;;;;;;;;;;5035136;28;20450;-76
2022/08/08 10:47:37;;;;;;;0.70;0.20;;;26.00;99.90;;;;;;5034617;28;20474;-74
2022/08/08 10:50:15;;;;;;;0.70;0.10;;;26.10;99.90;;;;;;5031902;28;20446;-75
2022/08/08 10:52:43;;;;;;;0.70;0.20;;;26.30;99.90;;;;;;5037298;28;20483;-75
2022/08/08 10:55:14;;;;;;;6.93;6.53;;;26.30;99.90;;;;;;5042564;28;20443;-75
2022/08/08 10:58:05;;;;;;;0.70;0.20;;;26.40;99.90;;;;;;5029428;28;20458;-75
2022/08/08 11:00:40;;;;;;;0.70;0.10;;;26.50;99.90;;;;;;5032252;28;20485;-75
2022/08/08 11:03:39;;;;;;;0.70;0.20;;;26.50;99.90;;;;;;5032430;28;20967;-75
2022/08/08 11:06:31;;;;;;;0.70;0.20;;;26.50;99.90;;;;;;5034681;28;20460;-74
2022/08/08 11:09:03;;;;;;;0.70;0.20;;;26.50;99.90;;;;;;5036002;28;20443;-74
2022/08/08 11:11:51;;;;;;;0.70;0.20;;;;;;;;;;5033086;28;20474;-75
2022/08/08 11:14:49;;;;;;;0.70;0.10;;;26.50;99.90;;;;;;5032173;28;20498;-76
2022/08/08 11:17:22;;;;;;;0.70;0.10;;;26.50;99.90;;;;;;5028195;28;20538;-76
2022/08/08 11:20:11;;;;;;;0.70;0.20;;;26.60;99.90;;;;;;5027381;28;20803;-74
2022/08/08 11:22:41;;;;;;;0.70;0.10;;;24.60;99.90;;;;;;5031486;28;20489;-73
2022/08/08 11:25:11;;;;;;;0.70;0.20;;;26.70;99.90;;;;;;5031342;28;20514;-74
2022/08/08 11:27:45;;;;;;;0.70;0.20;;;26.90;99.90;;;;;;5030539;28;20527;-76
2022/08/08 11:30:15;;;;;;;0.70;0.17;;;26.90;99.90;;;;;;5027212;28;20897;-76
2022/08/08 11:32:57;;;;;;;0.70;0.20;;;27.00;99.90;;;;;;5031042;28;20501;-76
2022/08/08 11:35:33;;;;;;;0.70;0.20;;;27.20;99.90;;;;;;5031097;28;20980;-76
2022/08/08 11:38:10;;;;;;;0.70;0.13;;;27.20;99.90;;;;;;5030882;28;20447;-75
2022/08/08 11:40:58;;;;;;;0.70;0.20;;;27.20;99.90;;;;;;5029046;28;20606;-76
2022/08/08 11:43:27;;;;;;;0.70;0.20;;;;;;;;;;5030585;28;20475;-75
2022/08/08 11:46:08;;;;;;;0.70;0.20;;;27.50;99.90;;;;;;5030742;28;20878;-75
2022/08/08 11:48:47;;;;;;;0.70;0.20;;;27.50;99.90;;;;;;5030389;28;20455;-76
2022/08/08 11:51:17;;;;;;;0.70;0.20;;;27.50;99.90;;;;;;5030459;28;20439;-76
2022/08/08 11:54:06;;;;;;;0.70;0.10;;;27.60;99.90;;;;;;5024788;28;20468;-75
2022/08/08 11:56:54;;;;;;;0.70;0.10;;;27.60;99.90;;;;;;5022810;28;20452;-75
2022/08/08 11:59:33;;;;;;;0.70;0.20;;;27.60;99.90;;;;;;5030650;28;20451;-75
2022/08/08 12:02:22;;;;;;;0.70;0.20;;;27.70;99.90;;;;;;5029690;28;20502;-76
2022/08/08 12:05:11;;;;;;;0.70;0.20;;;27.70;99.90;;;;;;5028099;28;20570;-76
2022/08/08 12:07:48;;;;;;;0.70;0.20;;;27.80;99.90;;;;;;5033492;28;20444;-74
2022/08/08 12:10:20;;;;;;;0.70;0.10;;;27.90;99.90;;;;;;5031876;28;20491;-75
2022/08/08 12:12:49;;;;;;;0.87;0.30;;;27.90;99.90;;;;;;5032900;28;20974;-75
2022/08/08 12:15:29;;;;;;;0.80;0.20;;;28.00;99.90;;;;;;5034257;28;20447;-74
2022/08/08 12:18:16;;;;;;;0.70;0.20;;;28.00;99.90;;;;;;5035242;28;20454;-75
2022/08/08 12:20:55;;;;;;;0.70;0.10;;;28.10;99.90;;;;;;5025913;28;20451;-73
2022/08/08 12:23:30;;;;;;;0.70;0.20;;;28.00;99.90;;;;;;5035021;28;20471;-74
2022/08/08 12:26:15;;;;;;;0.70;0.17;;;28.00;99.90;;;;;;5033964;28;20451;-75
2022/08/08 12:28:55;;;;;;;0.70;0.20;;;28.10;99.90;;;;;;5035221;28;20443;-73
2022/08/08 12:31:34;;;;;;;0.70;0.20;;;28.10;99.90;;;;;;5035639;28;20451;-72
2022/08/08 12:34:32;;;;;;;0.70;0.20;;;28.20;99.90;;;;;;5037054;28;20478;-73
2022/08/08 12:37:05;;;;;;;0.70;0.20;;;28.20;99.90;;;;;;5035201;28;21021;-75
2022/08/08 12:39:35;;;;;;;0.70;0.20;;;28.20;99.90;;;;;;5034391;28;20478;-74
2022/08/08 12:42:24;;;;;;;0.70;0.20;;;28.20;99.90;;;;;;5015214;28;20483;-73
2022/08/08 12:45:08;;;;;;;0.70;0.10;;;28.20;99.90;;;;;;5033232;28;20550;-72
2022/08/08 12:48:21;;;;;;;0.70;0.20;;;28.20;99.90;;;;;;5027564;28;21134;-73
2022/08/08 12:51:05;;;;;;;0.70;0.20;;;;;;;;;;5034711;28;20458;-73
2022/08/08 12:53:54;;;;;;;0.70;0.10;;;28.20;99.90;;;;;;5034151;28;20471;-72
2022/08/08 12:56:32;;;;;;;0.70;0.20;;;28.10;99.90;;;;;;5033702;28;20475;-72
2022/08/08 12:59:01;;;;;;;0.70;0.20;;;28.10;99.90;;;;;;5033375;28;20545;-72
2022/08/08 13:01:36;;;;;;;0.70;0.20;;;28.20;99.90;;;;;;5034085;28;20487;-72
2022/08/08 13:04:15;;;;;;;0.73;0.23;;;28.30;99.90;;;;;;5028577;28;20474;-72
2022/08/08 13:06:53;;;;;;;0.70;0.10;;;28.40;99.90;;;;;;5034415;28;20439;-73
2022/08/08 13:09:38;;;;;;;0.90;0.20;;;28.40;99.90;;;;;;5034548;28;20829;-73
2022/08/08 13:12:28;;;;;;;0.70;0.17;;;28.40;99.90;;;;;;5015132;28;20459;-73
2022/08/08 13:14:59;;;;;;;0.70;0.20;;;28.40;99.90;;;;;;5021917;28;20443;-74
2022/08/08 13:17:29;;;;;;;0.70;0.20;;;28.40;99.90;;;;;;5033771;28;20530;-74
2022/08/08 13:20:20;;;;;;;1.60;1.17;;;28.50;99.90;;;;;;5031474;28;20459;-73
2022/08/08 13:22:48;;;;;;;0.70;0.20;;;28.60;99.90;;;;;;5037347;28;20570;-74
2022/08/08 13:25:19;;;;;;;0.70;0.20;;;28.60;99.90;;;;;;5037442;28;20487;-74
2022/08/08 13:27:52;;;;;;;0.70;0.20;;;28.60;99.90;;;;;;5034943;28;20505;-73
2022/08/08 13:30:23;;;;;;;0.70;0.17;;;28.60;99.90;;;;;;5034275;28;20942;-73
2022/08/08 13:32:55;;;;;;;0.70;0.10;;;28.60;99.90;;;;;;5035013;28;20460;-73
2022/08/08 13:35:25;;;;;;;0.70;0.30;;;28.60;99.90;;;;;;5031625;28;20487;-73
2022/08/08 13:38:09;;;;;;;0.70;0.17;;;28.70;99.90;;;;;;5034282;28;20915;-74
2022/08/08 13:40:42;;;;;;;0.70;0.10;;;28.70;99.90;;;;;;5030915;28;20521;-73
2022/08/08 13:43:12;;;;;;;0.70;0.20;;;28.80;99.90;;;;;;5032628;28;20483;-73
2022/08/08 13:45:44;;;;;;;0.70;0.20;;;28.80;99.90;;;;;;5034043;28;20478;-73
2022/08/08 13:48:16;;;;;;;0.70;0.17;;;28.90;99.90;;;;;;5036100;28;20542;-73
2022/08/08 13:50:52;;;;;;;0.70;0.20;;;28.90;99.90;;;;;;5013264;28;20455;-73
2022/08/08 13:53:41;;;;;;;0.70;0.10;;;28.90;99.90;;;;;;5011992;28;21064;-73
2022/08/08 13:56:35;;;;;;;0.70;0.20;;;28.90;99.90;;;;;;5019010;28;20455;-74
2022/08/08 13:59:29;;;;;;;0.70;0.10;;;28.90;99.90;;;;;;5020966;28;20455;-72
2022/08/08 14:02:00;;;;;;;0.70;0.10;;;29.00;99.90;;;;;;5031560;28;20982;-73
2022/08/08 14:04:37;;;;;;;0.70;0.10;;;28.90;99.90;;;;;;5032980;28;20449;-74
2022/08/08 14:07:21;;;;;;;0.70;0.10;;;28.90;99.90;;;;;;5036598;28;20475;-73
2022/08/08 14:09:50;;;;;;;0.70;0.20;;;29.00;99.90;;;;;;5039667;28;20523;-73